Time;durP1;ratioP1;P1;durP2;ratioP2;P2;SDS_P1;SDS_P2;PMS_P1;PMS_P2;Temp;Humidity;BMP_temperature;BMP_pressure;BME280_temperature;BME280_humidity;BME280_pressure;Samples;Min_cycle;Max_cycle;Signal;HPM_P1;HPM_P2
2022/06/12 00:00:44;;;;;;;5.60;0.90;;;14.60;99.90;;;;;;5091206;28;20492;-83
2022/06/12 00:03:12;;;;;;;7.43;1.48;;;14.40;99.90;;;;;;5109982;28;20043;-83
2022/06/12 00:05:41;;;;;;;5.60;1.70;;;14.40;99.90;;;;;;5107695;28;20063;-83
2022/06/12 00:08:07;;;;;;;7.30;1.33;;;14.30;99.90;;;;;;5107914;28;20343;-83
2022/06/12 00:10:35;;;;;;;8.35;1.70;;;14.30;99.90;;;;;;5107741;28;20496;-83
2022/06/12 00:13:01;;;;;;;4.60;1.02;;;14.30;99.90;;;;;;5090707;28;20047;-84
2022/06/12 00:15:28;;;;;;;7.45;1.40;;;13.80;99.90;;;;;;5107679;28;20465;-83
2022/06/12 00:17:54;;;;;;;6.53;0.93;;;14.20;99.90;;;;;;5090331;28;20129;-83
2022/06/12 00:20:24;;;;;;;5.35;1.13;;;14.20;99.90;;;;;;5107714;28;20043;-83
2022/06/12 00:22:53;;;;;;;12.63;2.03;;;14.20;99.90;;;;;;5090575;28;20429;-83
2022/06/12 00:25:24;;;;;;;6.50;1.23;;;14.20;99.90;;;;;;5108594;28;20129;-83
2022/06/12 00:27:53;;;;;;;5.80;1.33;;;14.20;99.90;;;;;;5090448;28;20052;-83
2022/06/12 00:30:25;;;;;;;6.95;1.17;;;14.80;99.90;;;;;;5090468;28;20408;-83
2022/06/12 00:32:52;;;;;;;7.13;1.20;;;14.30;99.90;;;;;;5107425;28;20392;-83
2022/06/12 00:35:24;;;;;;;6.53;1.42;;;14.30;99.90;;;;;;5073628;28;20047;-83
2022/06/12 00:37:53;;;;;;;4.15;0.98;;;14.30;99.90;;;;;;5106839;28;20476;-83
2022/06/12 00:40:22;;;;;;;3.30;1.17;;;14.30;99.90;;;;;;5089854;28;20044;-83
2022/06/12 00:42:55;;;;;;;8.70;0.93;;;14.20;99.90;;;;;;5090028;28;20036;-83
2022/06/12 00:45:29;;;;;;;;;;;14.20;99.90;;;;;;5090941;28;20369;-83
2022/06/12 00:48:01;;;;;;;5.93;0.80;;;14.20;99.90;;;;;;5106623;28;19927;-83
2022/06/12 00:50:28;;;;;;;6.95;1.02;;;14.20;99.90;;;;;;5072828;28;20130;-83
2022/06/12 00:52:55;;;;;;;8.73;1.55;;;14.20;99.90;;;;;;5106491;28;20054;-83
2022/06/12 00:55:46;;;;;;;12.25;1.83;;;14.20;99.90;;;;;;5106907;28;20040;-83
2022/06/12 00:58:20;;;;;;;6.07;1.55;;;14.20;99.90;;;;;;5089996;28;20043;-83
2022/06/12 01:00:47;;;;;;;6.38;1.35;;;14.20;99.90;;;;;;5106585;28;20136;-83
2022/06/12 01:03:14;;;;;;;5.53;1.27;;;14.20;99.90;;;;;;5089778;28;20036;-84
2022/06/12 01:08:26;;;;;;;10.07;2.30;;;14.10;99.90;;;;;;5106815;28;20047;-83
2022/06/12 01:10:56;;;;;;;10.35;1.67;;;14.10;99.90;;;;;;5106542;28;20173;-83
2022/06/12 01:13:31;;;;;;;4.70;1.20;;;14.10;99.90;;;;;;5089255;28;20035;-83
2022/06/12 01:16:01;;;;;;;5.05;1.55;;;14.10;99.90;;;;;;5106352;28;20585;-83
2022/06/12 01:18:31;;;;;;;9.73;1.58;;;14.00;99.90;;;;;;5105660;28;20035;-83
2022/06/12 01:21:16;;;;;;;7.88;1.27;;;14.00;99.90;;;;;;5089392;28;20426;-83
2022/06/12 01:23:58;;;;;;;6.55;1.50;;;14.00;99.90;;;;;;5106774;28;20181;-83
2022/06/12 01:27:09;;;;;;;8.15;1.52;;;14.00;99.90;;;;;;5089023;28;20452;-83
2022/06/12 01:30:05;;;;;;;7.20;1.40;;;14.00;99.90;;;;;;5067293;28;20051;-83
2022/06/12 01:32:45;;;;;;;8.00;1.60;;;14.00;99.90;;;;;;5106100;28;20087;-82
2022/06/12 01:35:16;;;;;;;8.07;1.27;;;14.60;99.90;;;;;;5106130;28;20265;-83
2022/06/12 01:38:01;;;;;;;8.00;1.45;;;14.00;99.90;;;;;;5106222;28;20052;-83
2022/06/12 01:40:36;;;;;;;7.80;1.55;;;14.00;99.90;;;;;;5089411;28;20378;-83
2022/06/12 01:43:07;;;;;;;13.73;1.73;;;14.00;99.90;;;;;;5105697;28;20053;-83
2022/06/12 01:45:45;;;;;;;8.20;1.20;;;14.00;99.90;;;;;;5088786;28;20456;-83
2022/06/12 01:48:29;;;;;;;10.35;1.38;;;14.00;99.90;;;;;;5105667;28;20147;-83
2022/06/12 01:51:03;;;;;;;8.90;1.05;;;14.10;99.90;;;;;;5106709;28;20043;-83
2022/06/12 01:53:39;;;;;;;6.63;1.08;;;14.10;99.90;;;;;;5089978;28;20044;-83
2022/06/12 01:56:15;;;;;;;5.88;1.33;;;14.00;99.90;;;;;;5110062;28;20050;-84
2022/06/12 01:59:01;;;;;;;6.53;1.42;;;14.00;99.90;;;;;;5090569;28;20101;-83
2022/06/12 02:01:42;;;;;;;10.20;1.80;;;14.10;99.90;;;;;;5037916;28;20138;-84
2022/06/12 02:04:31;;;;;;;8.32;1.20;;;14.10;99.90;;;;;;5088979;28;20054;-83
2022/06/12 02:07:21;;;;;;;8.65;1.65;;;14.10;99.90;;;;;;5105797;28;20048;-83
2022/06/12 02:10:01;;;;;;;8.27;1.45;;;14.10;99.90;;;;;;5088814;28;20050;-84
2022/06/12 02:15:51;;;;;;;7.90;1.42;;;14.20;99.90;;;;;;5105919;28;20881;-83
2022/06/12 02:18:29;;;;;;;7.53;1.38;;;14.20;99.90;;;;;;5105410;28;20058;-83
2022/06/12 02:21:41;;;;;;;7.18;1.13;;;14.10;99.90;;;;;;5106194;28;20043;-83
2022/06/12 02:24:13;;;;;;;10.68;2.90;;;14.10;99.90;;;;;;5106316;28;20074;-83
2022/06/12 02:27:02;;;;;;;4.75;1.75;;;14.10;99.90;;;;;;5105238;28;20044;-83
2022/06/12 02:29:50;;;;;;;9.32;1.70;;;14.10;99.90;;;;;;5105509;28;20055;-83
2022/06/12 02:32:46;;;;;;;5.03;1.30;;;14.10;99.90;;;;;;5088956;28;20051;-84
2022/06/12 02:35:29;;;;;;;14.02;1.65;;;14.00;99.90;;;;;;5088313;28;20066;-83
2022/06/12 02:38:01;;;;;;;;;;;14.00;99.90;;;;;;5105887;28;20171;-84
2022/06/12 02:40:40;;;;;;;6.20;1.50;;;13.90;99.90;;;;;;5104864;28;20379;-83
2022/06/12 02:43:12;;;;;;;9.60;1.35;;;13.90;99.90;;;;;;5104964;28;20547;-84
2022/06/12 02:45:47;;;;;;;7.68;1.38;;;13.90;99.90;;;;;;5105631;28;20510;-83
2022/06/12 02:48:13;;;;;;;10.70;1.83;;;13.90;99.90;;;;;;5104879;28;20044;-83
2022/06/12 02:50:53;;;;;;;8.27;1.73;;;13.80;99.90;;;;;;5088255;28;20044;-83
2022/06/12 02:53:49;;;;;;;5.60;1.77;;;13.80;99.90;;;;;;5087969;28;20089;-83
2022/06/12 02:56:34;;;;;;;12.25;1.65;;;13.70;99.90;;;;;;5088291;28;20099;-83
2022/06/12 02:59:37;;;;;;;11.90;1.48;;;13.70;99.90;;;;;;5088753;28;20043;-82
2022/06/12 03:02:17;;;;;;;6.00;1.27;;;13.70;99.90;;;;;;5091081;28;20043;-83
2022/06/12 03:04:56;;;;;;;7.22;1.33;;;13.60;99.90;;;;;;5091390;28;20051;-83
2022/06/12 03:07:23;;;;;;;8.85;2.08;;;13.60;99.90;;;;;;5091847;28;20071;-83
2022/06/12 03:09:51;;;;;;;8.98;1.38;;;13.50;99.90;;;;;;5108659;28;20396;-83
2022/06/12 03:12:17;;;;;;;8.00;1.73;;;13.50;99.90;;;;;;5091917;28;20044;-83
2022/06/12 03:14:43;;;;;;;5.97;1.42;;;13.50;99.90;;;;;;5091588;28;20515;-83
2022/06/12 03:17:10;;;;;;;16.33;2.08;;;13.40;99.90;;;;;;5108450;28;20044;-83
2022/06/12 03:19:45;;;;;;;6.68;1.73;;;13.40;99.90;;;;;;5092057;28;20059;-83
2022/06/12 03:22:40;;;;;;;8.68;1.77;;;13.40;99.90;;;;;;5091158;28;20039;-83
2022/06/12 03:25:23;;;;;;;6.65;1.60;;;13.40;99.90;;;;;;5108326;28;20048;-83
2022/06/12 03:27:53;;;;;;;6.80;1.45;;;13.30;99.90;;;;;;5108623;28;20043;-83
2022/06/12 03:30:30;;;;;;;11.88;2.08;;;13.30;99.90;;;;;;5108543;28;20048;-83
2022/06/12 03:33:31;;;;;;;7.80;1.65;;;13.30;99.90;;;;;;5108266;28;20039;-83
2022/06/12 03:36:33;;;;;;;8.30;2.20;;;13.30;99.90;;;;;;5086595;28;20078;-83
2022/06/12 03:39:09;;;;;;;11.15;1.58;;;13.30;99.90;;;;;;5108886;28;20043;-83
2022/06/12 03:41:45;;;;;;;4.90;1.38;;;13.70;99.90;;;;;;5111668;28;20036;-83
2022/06/12 03:44:30;;;;;;;7.38;1.13;;;13.30;99.90;;;;;;5097648;28;20044;-83
2022/06/12 03:47:05;;;;;;;8.02;2.17;;;13.30;99.90;;;;;;5113803;28;20069;-82
2022/06/12 03:49:36;;;;;;;9.20;2.38;;;13.20;99.90;;;;;;5115169;28;20046;-82
2022/06/12 03:52:14;;;;;;;11.43;1.17;;;13.20;99.90;;;;;;5117634;28;20047;-83
2022/06/12 03:54:51;;;;;;;5.07;1.60;;;13.20;99.90;;;;;;5115173;28;20083;-83
2022/06/12 04:00:20;;;;;;;9.48;1.60;;;13.20;99.90;;;;;;5114739;28;20051;-83
2022/06/12 04:03:13;;;;;;;8.88;1.63;;;13.20;99.90;;;;;;5114837;28;20055;-83
2022/06/12 04:05:46;;;;;;;7.95;1.88;;;13.20;99.90;;;;;;5113846;28;20074;-83
2022/06/12 04:08:19;;;;;;;6.80;1.50;;;13.20;99.90;;;;;;5112819;28;20496;-82
2022/06/12 04:10:55;;;;;;;10.02;2.25;;;13.20;99.90;;;;;;5114083;28;20044;-83
2022/06/12 04:13:22;;;;;;;8.57;1.42;;;13.30;99.90;;;;;;5115722;28;20067;-83
2022/06/12 04:15:56;;;;;;;5.80;1.38;;;13.30;99.90;;;;;;5116067;28;20555;-83
2022/06/12 04:18:27;;;;;;;14.93;2.53;;;13.30;99.90;;;;;;5115117;28;20184;-84
2022/06/12 04:20:57;;;;;;;12.63;2.80;;;13.40;99.90;;;;;;5097433;28;20044;-83
2022/06/12 04:23:56;;;;;;;8.88;1.55;;;13.40;99.90;;;;;;5097366;28;20073;-83
2022/06/12 04:26:37;;;;;;;16.00;1.85;;;13.50;99.90;;;;;;5024579;28;20625;-80
2022/06/12 04:29:25;;;;;;;5.90;1.40;;;13.60;99.90;;;;;;5114764;28;20043;-83
2022/06/12 04:31:55;;;;;;;10.43;1.73;;;13.70;99.90;;;;;;5097381;28;20099;-85
2022/06/12 04:34:26;;;;;;;8.40;2.38;;;13.60;99.90;;;;;;5113474;28;20450;-83
2022/06/12 04:37:11;;;;;;;9.10;1.80;;;13.90;99.90;;;;;;5113976;28;20047;-84
2022/06/12 04:39:37;;;;;;;10.35;2.00;;;14.00;99.90;;;;;;5113448;28;20602;-83
2022/06/12 04:42:06;;;;;;;5.70;1.63;;;14.00;99.90;;;;;;5113786;28;20065;-79
2022/06/12 04:44:33;;;;;;;9.68;1.77;;;14.10;99.90;;;;;;5114738;28;20043;-83
2022/06/12 04:47:02;;;;;;;9.50;1.58;;;14.10;99.90;;;;;;5115285;28;20043;-82
2022/06/12 04:49:34;;;;;;;10.80;1.77;;;14.00;99.90;;;;;;5116910;28;20032;-83
2022/06/12 04:52:10;;;;;;;8.40;1.70;;;14.30;99.90;;;;;;5095427;28;20047;-84
2022/06/12 04:54:38;;;;;;;8.15;1.95;;;14.50;99.90;;;;;;5113677;28;20043;-84
2022/06/12 04:57:06;;;;;;;9.10;1.90;;;14.80;99.90;;;;;;5110057;28;20377;-84
2022/06/12 04:59:34;;;;;;;9.85;1.95;;;14.00;99.90;;;;;;5113277;28;20047;-84
2022/06/12 05:02:00;;;;;;;8.20;2.03;;;14.30;99.90;;;;;;5110929;28;20091;-84
2022/06/12 05:04:27;;;;;;;5.10;1.40;;;14.20;99.90;;;;;;5094015;28;20119;-84
2022/06/12 05:06:53;;;;;;;7.70;1.55;;;15.40;99.90;;;;;;5110355;28;20047;-83
2022/06/12 05:09:23;;;;;;;15.27;2.50;;;14.10;99.90;;;;;;5093320;28;20108;-83
2022/06/12 05:11:52;;;;;;;5.72;1.40;;;14.20;99.90;;;;;;5094123;28;20036;-82
2022/06/12 05:14:26;;;;;;;8.45;1.98;;;14.20;99.90;;;;;;5075845;28;20044;-81
2022/06/12 05:16:56;;;;;;;15.75;1.90;;;14.20;99.90;;;;;;5112133;28;20039;-84
2022/06/12 05:19:27;;;;;;;9.02;1.77;;;14.20;99.90;;;;;;5110405;28;20044;-81
2022/06/12 05:21:53;;;;;;;11.60;1.67;;;14.20;99.90;;;;;;5093767;28;20043;-84
2022/06/12 05:24:22;;;;;;;7.03;1.65;;;14.30;99.90;;;;;;5110294;28;20051;-82
2022/06/12 05:26:52;;;;;;;10.60;1.73;;;14.40;99.90;;;;;;5110062;28;20484;-82
2022/06/12 05:29:25;;;;;;;5.72;1.25;;;14.50;99.90;;;;;;5094060;28;20048;-80
2022/06/12 05:31:51;;;;;;;;;;;14.50;99.90;;;;;;5111915;28;20052;-82
2022/06/12 05:34:17;;;;;;;9.80;1.73;;;14.60;99.90;;;;;;5094284;28;20023;-82
2022/06/12 05:36:43;;;;;;;12.80;1.95;;;15.70;99.90;;;;;;5109408;28;20087;-82
2022/06/12 05:39:10;;;;;;;12.50;2.05;;;14.80;99.90;;;;;;5111755;28;20075;-83
2022/06/12 05:41:36;;;;;;;11.25;2.50;;;14.90;99.90;;;;;;5094434;28;20039;-83
2022/06/12 05:44:05;;;;;;;14.48;2.53;;;15.00;99.90;;;;;;5113453;28;20050;-83
2022/06/12 05:46:32;;;;;;;11.93;3.00;;;15.10;99.90;;;;;;5113320;28;20035;-82
2022/06/12 05:48:58;;;;;;;11.52;1.90;;;15.20;99.90;;;;;;5109980;28;20559;-83
2022/06/12 05:51:24;;;;;;;12.30;2.00;;;15.30;99.90;;;;;;5109912;28;20051;-83
2022/06/12 05:53:53;;;;;;;14.88;3.35;;;16.20;99.90;;;;;;5106953;28;20040;-83
2022/06/12 05:56:22;;;;;;;13.50;2.33;;;15.50;99.90;;;;;;5072127;28;20092;-83
2022/06/12 05:58:48;;;;;;;16.45;3.00;;;15.70;99.90;;;;;;5106029;28;20047;-83
2022/06/12 06:01:16;;;;;;;11.95;2.58;;;15.80;99.90;;;;;;5105279;28;20036;-83
2022/06/12 06:03:42;;;;;;;13.60;2.47;;;15.90;99.90;;;;;;5106726;28;20044;-83
2022/06/12 06:06:13;;;;;;;12.32;2.22;;;16.00;99.90;;;;;;5105348;28;20156;-83
2022/06/12 06:08:39;;;;;;;11.05;1.85;;;16.00;99.90;;;;;;5106926;28;20051;-84
2022/06/12 06:11:06;;;;;;;10.02;2.63;;;16.20;99.90;;;;;;5088514;28;20044;-84
2022/06/12 06:13:32;;;;;;;13.70;2.78;;;16.30;99.90;;;;;;5106062;28;20059;-84
2022/06/12 06:15:58;;;;;;;20.77;3.75;;;16.50;99.90;;;;;;5089328;28;20217;-83
2022/06/12 06:18:24;;;;;;;13.75;3.08;;;16.50;99.90;;;;;;5105267;28;20036;-86
2022/06/12 06:20:53;;;;;;;18.05;3.08;;;16.60;99.90;;;;;;5107033;28;20077;-87
2022/06/12 06:23:22;;;;;;;17.92;3.78;;;16.60;99.90;;;;;;5088046;28;20043;-86
2022/06/12 06:25:48;;;;;;;11.30;2.40;;;16.70;99.90;;;;;;5089790;28;20082;-86
2022/06/12 06:28:14;;;;;;;18.73;3.08;;;16.80;99.90;;;;;;5089259;28;20571;-85
2022/06/12 06:30:40;;;;;;;20.33;2.78;;;16.90;99.90;;;;;;5072872;28;20052;-86
2022/06/12 06:33:07;;;;;;;12.63;2.63;;;17.10;99.90;;;;;;5106089;28;20044;-86
2022/06/12 06:35:33;;;;;;;16.73;2.97;;;17.30;99.90;;;;;;5109901;28;20039;-88
2022/06/12 06:38:00;;;;;;;14.93;3.00;;;17.50;99.90;;;;;;5112359;28;20499;-86
2022/06/12 06:40:29;;;;;;;18.80;3.05;;;17.60;99.90;;;;;;5059395;28;20048;-86
2022/06/12 06:42:54;;;;;;;14.77;3.13;;;17.70;99.90;;;;;;5093314;28;20082;-86
2022/06/12 06:48:10;;;;;;;11.20;3.50;;;17.80;99.90;;;;;;5095342;28;20039;-87
2022/06/12 06:50:36;;;;;;;17.13;2.63;;;17.90;99.90;;;;;;5113392;28;20032;-86
2022/06/12 06:53:03;;;;;;;14.10;2.22;;;18.00;99.90;;;;;;5109951;28;20077;-86
2022/06/12 06:55:30;;;;;;;13.50;3.50;;;18.00;99.90;;;;;;5110261;28;20047;-88
2022/06/12 06:58:00;;;;;;;16.42;3.70;;;18.10;99.90;;;;;;5091552;28;20093;-87
2022/06/12 07:00:29;;;;;;;17.25;3.20;;;18.10;99.90;;;;;;5093000;28;20051;-88
2022/06/12 07:02:55;;;;;;;15.57;3.08;;;18.20;99.90;;;;;;5109175;28;20043;-84
2022/06/12 07:05:21;;;;;;;11.48;2.88;;;18.30;99.90;;;;;;5075373;28;20047;-85
2022/06/12 07:07:48;;;;;;;13.05;2.80;;;18.40;99.90;;;;;;5096054;28;20455;-84
2022/06/12 07:10:23;;;;;;;15.55;2.65;;;18.50;99.90;;;;;;5111132;28;20130;-86
2022/06/12 07:12:53;;;;;;;14.68;2.85;;;18.60;99.90;;;;;;5114025;28;20073;-84
2022/06/12 07:15:20;;;;;;;17.30;3.35;;;18.60;99.90;;;;;;5111167;28;20040;-83
2022/06/12 07:17:47;;;;;;;13.27;2.70;;;18.70;99.90;;;;;;5095538;28;20044;-84
2022/06/12 07:20:16;;;;;;;14.50;3.00;;;18.80;99.90;;;;;;5095232;28;20248;-85
2022/06/12 07:22:42;;;;;;;14.32;3.38;;;18.80;99.90;;;;;;5095526;28;20046;-86
2022/06/12 07:25:08;;;;;;;11.68;2.70;;;18.90;99.90;;;;;;5115537;28;20047;-85
2022/06/12 07:27:35;;;;;;;11.77;2.83;;;18.90;99.90;;;;;;5113711;28;20097;-83
2022/06/12 07:30:00;;;;;;;15.90;3.10;;;19.00;99.90;;;;;;5100155;28;20053;-86
2022/06/12 07:32:26;;;;;;;15.77;3.25;;;19.00;99.90;;;;;;5101573;28;20043;-86
2022/06/12 07:34:53;;;;;;;13.55;2.88;;;19.20;99.90;;;;;;5120677;28;20044;-86
2022/06/12 07:37:21;;;;;;;17.13;3.03;;;19.30;99.90;;;;;;5106200;28;20043;-87
2022/06/12 07:39:47;;;;;;;12.50;3.10;;;19.40;99.90;;;;;;5132606;28;20131;-88
2022/06/12 07:42:13;;;;;;;13.38;2.88;;;19.50;99.90;;;;;;5109106;28;20511;-86
2022/06/12 07:44:39;;;;;;;10.98;2.25;;;19.60;99.90;;;;;;5107319;28;20111;-87
2022/06/12 07:47:05;;;;;;;9.98;2.17;;;19.80;99.90;;;;;;5106414;28;20069;-87
2022/06/12 07:49:32;;;;;;;8.60;2.13;;;20.10;99.90;;;;;;5121166;28;20050;-87
2022/06/12 07:52:01;;;;;;;11.88;2.10;;;20.20;99.90;;;;;;5106839;28;20047;-84
2022/06/12 07:54:28;;;;;;;13.05;2.20;;;20.30;99.90;;;;;;5119808;28;20059;-85
2022/06/12 07:56:54;;;;;;;10.30;1.77;;;20.30;99.90;;;;;;5121820;28;20052;-87
2022/06/12 07:59:24;;;;;;;12.38;1.48;;;20.20;99.90;;;;;;5125737;28;20063;-93
2022/06/12 08:01:53;;;;;;;10.45;3.65;;;20.50;99.90;;;;;;5108165;28;20104;-86
2022/06/12 08:04:20;;;;;;;11.20;2.00;;;20.60;99.90;;;;;;5091920;28;20367;-87
2022/06/12 08:06:46;;;;;;;9.68;1.77;;;20.80;99.90;;;;;;5105722;28;20181;-86
2022/06/12 08:09:13;;;;;;;11.38;2.15;;;20.90;99.90;;;;;;5092240;28;20047;-87
2022/06/12 08:11:42;;;;;;;8.98;2.33;;;20.90;99.90;;;;;;5088708;28;20050;-91
2022/06/12 08:14:08;;;;;;;15.18;1.73;;;21.10;99.90;;;;;;5123636;28;20039;-90
2022/06/12 08:16:35;;;;;;;6.90;1.80;;;21.20;99.90;;;;;;5106908;28;20047;-92
2022/06/12 08:19:02;;;;;;;7.78;1.67;;;21.30;99.90;;;;;;5105932;28;20040;-92
2022/06/12 08:21:28;;;;;;;7.80;1.63;;;21.30;99.90;;;;;;5109559;28;20051;-90
2022/06/12 08:23:57;;;;;;;7.43;1.38;;;21.30;99.90;;;;;;5088715;28;20043;-92
2022/06/12 08:26:24;;;;;;;7.68;1.55;;;21.40;99.90;;;;;;5102540;28;20465;-84
2022/06/12 08:29:04;;;;;;;10.40;1.80;;;21.50;99.90;;;;;;5115168;28;20036;-87
2022/06/12 08:31:45;;;;;;;4.72;1.55;;;21.60;99.90;;;;;;5118337;27;20086;-85
2022/06/12 08:34:22;;;;;;;7.45;1.85;;;21.80;99.90;;;;;;5120165;28;20466;-90
2022/06/12 08:36:52;;;;;;;9.00;1.98;;;21.80;99.90;;;;;;5102643;28;20151;-90
2022/06/12 08:39:18;;;;;;;5.95;1.88;;;21.30;99.90;;;;;;5102982;28;20531;-93
2022/06/12 08:42:04;;;;;;;7.13;1.80;;;22.10;99.90;;;;;;5096340;28;20052;-87
2022/06/12 08:45:07;;;;;;;11.40;2.13;;;22.10;99.90;;;;;;5100462;28;20063;-86
2022/06/12 08:48:08;;;;;;;8.15;2.00;;;22.00;99.90;;;;;;5116540;28;20035;-85
2022/06/12 08:50:40;;;;;;;10.77;2.40;;;21.80;99.90;;;;;;5100439;28;20090;-86
2022/06/12 08:53:25;;;;;;;8.65;2.15;;;21.70;99.90;;;;;;5119220;28;20039;-90
2022/06/12 08:55:57;;;;;;;8.30;1.58;;;21.60;99.90;;;;;;5102262;28;20058;-92
2022/06/12 08:58:41;;;;;;;8.80;1.63;;;21.40;99.90;;;;;;5099547;28;20396;-90
2022/06/12 09:01:12;;;;;;;8.15;1.75;;;21.40;99.90;;;;;;5117213;28;20423;-89
2022/06/12 09:03:45;;;;;;;7.38;1.90;;;21.50;99.90;;;;;;5094780;28;20040;-87
2022/06/12 09:06:34;;;;;;;9.43;1.85;;;21.80;99.90;;;;;;5113223;28;20446;-88
2022/06/12 09:09:04;;;;;;;10.25;2.17;;;21.90;99.90;;;;;;5095842;28;20594;-90
2022/06/12 09:11:40;;;;;;;11.85;2.15;;;21.80;99.90;;;;;;5113070;28;20071;-88
2022/06/12 09:14:33;;;;;;;12.10;2.38;;;21.70;99.90;;;;;;5114984;28;20047;-95
2022/06/12 09:17:38;;;;;;;14.02;2.15;;;21.60;99.90;;;;;;5093955;28;20048;-84
2022/06/12 09:20:17;;;;;;;7.70;1.65;;;21.70;99.90;;;;;;5106699;28;20047;-78
2022/06/12 09:23:15;;;;;;;11.07;2.30;;;21.60;99.90;;;;;;5110557;28;20484;-82
2022/06/12 09:26:10;;;;;;;11.40;2.30;;;21.50;99.90;;;;;;5107274;28;20057;-82
2022/06/12 09:29:05;;;;;;;9.95;2.63;;;22.00;99.90;;;;;;5102806;28;20052;-82
2022/06/12 09:31:31;;;;;;;8.57;1.75;;;21.10;99.90;;;;;;5110935;28;20108;-82
2022/06/12 09:34:08;;;;;;;7.43;1.50;;;20.90;99.90;;;;;;5094031;28;20210;-85
2022/06/12 09:36:43;;;;;;;5.80;2.00;;;20.80;99.90;;;;;;5095171;28;20078;-79
2022/06/12 09:39:37;;;;;;;8.68;1.98;;;20.80;99.90;;;;;;5110391;28;20057;-80
2022/06/12 09:42:29;;;;;;;8.57;1.83;;;21.10;99.90;;;;;;5109375;28;20081;-80
2022/06/12 09:45:11;;;;;;;12.82;2.10;;;21.50;99.90;;;;;;5110404;28;20054;-80
2022/06/12 09:48:18;;;;;;;5.15;1.60;;;22.00;99.90;;;;;;5111339;28;20487;-82
2022/06/12 09:51:08;;;;;;;12.75;2.58;;;22.40;98.80;;;;;;5057930;28;20055;-79
2022/06/12 09:54:00;;;;;;;9.75;1.80;;;22.50;98.80;;;;;;5109764;28;20051;-81
2022/06/12 09:56:39;;;;;;;9.70;1.55;;;22.40;98.50;;;;;;5063324;28;20075;-80
2022/06/12 09:59:36;;;;;;;6.43;1.50;;;22.20;96.50;;;;;;5112725;28;20052;-84
2022/06/12 10:02:20;;;;;;;4.80;1.50;;;21.90;95.30;;;;;;5081493;28;20048;-81
2022/06/12 10:04:54;;;;;;;5.60;1.13;;;21.80;97.10;;;;;;5111740;28;20048;-80
2022/06/12 10:07:35;;;;;;;6.47;1.08;;;22.00;96.60;;;;;;5110746;28;20536;-83
2022/06/12 10:10:09;;;;;;;2.88;0.80;;;22.20;93.70;;;;;;5097293;28;20046;-82
2022/06/12 10:12:45;;;;;;;5.10;0.93;;;22.50;91.20;;;;;;5115579;28;20043;-83
2022/06/12 10:15:21;;;;;;;6.05;1.13;;;22.70;84.30;;;;;;5083743;28;20044;-83
2022/06/12 10:18:20;;;;;;;4.13;0.82;;;22.60;81.10;;;;;;5117997;28;20055;-86
2022/06/12 10:21:00;;;;;;;4.05;1.00;;;22.30;71.60;;;;;;5107251;28;20113;-83
2022/06/12 10:23:26;;;;;;;4.75;1.10;;;22.20;74.80;;;;;;5117178;28;20126;-82
2022/06/12 10:25:56;;;;;;;3.50;1.23;;;22.30;76.40;;;;;;5097848;28;20476;-84
2022/06/12 10:28:32;;;;;;;6.15;1.20;;;23.20;75.50;;;;;;5115321;28;20126;-81
2022/06/12 10:31:03;;;;;;;5.50;1.00;;;22.70;71.80;;;;;;5099832;28;20044;-80
2022/06/12 10:33:31;;;;;;;3.35;0.57;;;22.90;73.00;;;;;;5110402;28;20044;-84
2022/06/12 10:36:00;;;;;;;5.95;1.45;;;22.90;72.00;;;;;;5112617;28;20067;-83
2022/06/12 10:38:31;;;;;;;2.33;0.47;;;23.00;71.90;;;;;;5110069;28;20100;-83
2022/06/12 10:41:06;;;;;;;4.10;0.60;;;23.20;65.90;;;;;;5110123;28;20126;-85
2022/06/12 10:43:36;;;;;;;4.60;1.00;;;23.20;62.80;;;;;;5110692;28;20141;-82
2022/06/12 10:46:17;;;;;;;5.47;1.23;;;23.20;65.40;;;;;;5108590;28;20047;-83
2022/06/12 10:49:04;;;;;;;6.78;1.02;;;23.10;63.90;;;;;;5093674;28;20055;-82
2022/06/12 10:51:39;;;;;;;3.45;0.98;;;22.90;63.00;;;;;;5091999;28;20488;-81
2022/06/12 10:54:16;;;;;;;4.40;1.08;;;22.70;63.30;;;;;;5109628;28;20047;-84
2022/06/12 10:56:53;;;;;;;4.00;1.00;;;22.80;67.80;;;;;;5092767;28;20089;-83
2022/06/12 10:59:34;;;;;;;3.50;0.73;;;23.00;68.70;;;;;;5107913;28;20048;-83
2022/06/12 11:02:12;;;;;;;3.10;0.98;;;23.30;67.50;;;;;;5110701;28;20047;-83
2022/06/12 11:05:08;;;;;;;3.67;1.33;;;23.40;66.70;;;;;;5092220;28;20054;-83
2022/06/12 11:07:37;;;;;;;3.88;1.02;;;23.50;66.80;;;;;;5108457;28;20148;-83
2022/06/12 11:10:21;;;;;;;3.45;1.08;;;23.70;70.30;;;;;;5092949;28;20051;-84
2022/06/12 11:12:53;;;;;;;6.55;1.00;;;23.80;65.70;;;;;;5107902;28;20146;-83
2022/06/12 11:15:30;;;;;;;6.63;1.50;;;23.80;64.90;;;;;;5109057;28;20047;-83
2022/06/12 11:18:09;;;;;;;4.70;1.27;;;23.70;64.40;;;;;;5109255;28;20048;-83
2022/06/12 11:21:07;;;;;;;4.47;0.95;;;23.60;64.70;;;;;;5106798;28;20055;-84
2022/06/12 11:24:01;;;;;;;4.82;1.13;;;23.40;60.90;;;;;;5092742;28;20048;-84
2022/06/12 11:26:59;;;;;;;2.85;1.00;;;23.30;61.30;;;;;;5109372;28;20066;-82
2022/06/12 11:29:47;;;;;;;4.55;1.13;;;23.10;63.40;;;;;;5107892;28;20075;-82
2022/06/12 11:32:16;;;;;;;4.45;1.25;;;23.10;62.70;;;;;;5109405;28;20485;-82
2022/06/12 11:35:05;;;;;;;3.13;0.75;;;23.20;63.80;;;;;;5110032;28;20377;-82
2022/06/12 11:37:53;;;;;;;4.20;1.23;;;23.30;60.10;;;;;;5107389;28;20058;-82
2022/06/12 11:40:35;;;;;;;7.05;1.15;;;23.40;61.60;;;;;;5109431;28;20060;-82
2022/06/12 11:43:14;;;;;;;5.20;1.25;;;23.40;61.00;;;;;;5107925;28;20096;-82
2022/06/12 11:45:48;;;;;;;5.38;1.20;;;23.30;61.70;;;;;;5090768;28;20043;-82
2022/06/12 11:48:28;;;;;;;3.40;1.10;;;23.40;61.60;;;;;;5092186;28;20039;-82
2022/06/12 11:51:12;;;;;;;2.38;1.10;;;23.50;62.60;;;;;;5106891;28;20047;-82
2022/06/12 11:53:59;;;;;;;6.90;1.10;;;24.00;60.70;;;;;;5091687;28;20083;-82
2022/06/12 11:56:44;;;;;;;1.63;0.73;;;23.50;58.70;;;;;;5091798;28;20051;-83
2022/06/12 11:59:55;;;;;;;6.90;1.15;;;23.40;62.50;;;;;;5090169;28;20491;-82
2022/06/12 12:02:35;;;;;;;5.43;1.50;;;23.60;60.30;;;;;;5086606;28;20056;-80
2022/06/12 12:05:23;;;;;;;7.70;2.45;;;23.50;60.70;;;;;;5091464;28;20048;-80
2022/06/12 12:08:12;;;;;;;4.40;1.10;;;23.30;60.40;;;;;;5106545;28;20479;-80
2022/06/12 12:10:45;;;;;;;2.72;0.90;;;23.30;59.30;;;;;;5091967;28;20048;-81
2022/06/12 12:13:16;;;;;;;4.20;1.00;;;23.40;60.30;;;;;;5108332;28;20116;-80
2022/06/12 12:15:47;;;;;;;5.07;1.13;;;23.50;60.70;;;;;;5090444;28;20123;-80
2022/06/12 12:18:29;;;;;;;2.58;0.75;;;23.60;60.10;;;;;;5091420;28;20047;-81
2022/06/12 12:20:56;;;;;;;5.35;1.00;;;23.80;59.40;;;;;;5106542;28;20050;-79
2022/06/12 12:23:38;;;;;;;3.10;0.70;;;24.00;58.90;;;;;;5092143;28;20130;-79
2022/06/12 12:26:20;;;;;;;2.95;0.80;;;24.20;57.80;;;;;;5107900;28;20073;-80
2022/06/12 12:28:57;;;;;;;2.72;0.65;;;24.10;57.50;;;;;;5106524;28;20060;-80
2022/06/12 12:31:24;;;;;;;4.32;1.10;;;23.90;57.20;;;;;;5091707;28;20124;-82
2022/06/12 12:33:51;;;;;;;3.83;0.80;;;23.90;58.10;;;;;;5089044;28;20043;-81
2022/06/12 12:41:55;;;;;;;4.88;1.10;;;23.70;58.20;;;;;;5105999;28;20117;-82
2022/06/12 12:44:38;;;;;;;4.53;1.27;;;23.70;57.90;;;;;;5108125;28;20039;-82
2022/06/12 12:47:17;;;;;;;3.20;1.25;;;23.90;56.70;;;;;;5105842;28;20046;-82
2022/06/12 12:49:43;;;;;;;7.47;1.33;;;24.00;56.70;;;;;;5106649;28;20438;-82
2022/06/12 12:52:14;;;;;;;2.90;1.00;;;23.90;57.40;;;;;;5107290;28;20048;-82
2022/06/12 12:54:47;;;;;;;4.50;1.38;;;23.80;57.80;;;;;;5105835;28;20093;-82
2022/06/12 12:57:15;;;;;;;3.38;1.00;;;23.70;58.30;;;;;;5091233;28;20091;-82
2022/06/12 12:59:52;;;;;;;6.60;1.10;;;23.80;57.70;;;;;;5107031;28;20039;-82
2022/06/12 13:02:23;;;;;;;5.05;1.30;;;23.80;55.30;;;;;;5090347;28;20614;-82
2022/06/12 13:04:52;;;;;;;7.30;1.23;;;23.50;56.30;;;;;;5107246;28;20062;-81
2022/06/12 13:07:38;;;;;;;4.00;1.10;;;23.10;56.90;;;;;;5105815;28;20522;-81
2022/06/12 13:10:07;;;;;;;5.53;0.82;;;22.80;57.90;;;;;;5109074;28;20047;-82
2022/06/12 13:12:54;;;;;;;4.32;1.05;;;22.80;59.30;;;;;;5106039;28;20112;-81
2022/06/12 13:15:25;;;;;;;4.78;1.30;;;23.10;60.00;;;;;;5107216;28;20051;-81
2022/06/12 13:18:07;;;;;;;3.78;1.00;;;23.10;58.70;;;;;;5107033;28;20039;-81
2022/06/12 13:20:38;;;;;;;5.22;1.50;;;23.20;59.40;;;;;;5088814;28;20079;-83
2022/06/12 13:23:42;;;;;;;4.82;1.15;;;23.40;59.60;;;;;;5107502;28;20051;-81
2022/06/12 13:26:12;;;;;;;5.88;1.10;;;23.70;57.80;;;;;;5106774;28;20051;-82
2022/06/12 13:28:40;;;;;;;3.13;1.10;;;23.80;57.40;;;;;;5107081;28;20040;-80
2022/06/12 13:31:18;;;;;;;3.08;1.02;;;23.70;57.80;;;;;;5107240;28;20044;-81
2022/06/12 13:33:55;;;;;;;4.70;1.02;;;23.80;57.80;;;;;;5107357;28;20040;-80
2022/06/12 13:36:48;;;;;;;7.90;1.35;;;23.80;57.10;;;;;;5109336;28;21424;-80
2022/06/12 13:39:35;;;;;;;;;;;23.90;56.40;;;;;;5106527;28;20083;-79
2022/06/12 13:42:03;;;;;;;6.97;1.00;;;24.00;57.40;;;;;;5108304;28;20361;-79
2022/06/12 13:44:35;;;;;;;8.60;1.17;;;24.10;56.90;;;;;;5110888;28;20070;-80